Time;durP1;ratioP1;P1;durP2;ratioP2;P2;SDS_P1;SDS_P2;PMS_P1;PMS_P2;Temp;Humidity;BMP_temperature;BMP_pressure;BME280_temperature;BME280_humidity;BME280_pressure;Samples;Min_cycle;Max_cycle;Signal;HPM_P1;HPM_P2
2021/07/11 00:01:31;;;;;;;4.57;2.97;;;18.20;99.90;;;;;;5031686;28;20037;-73
2021/07/11 00:03:57;;;;;;;4.90;3.33;;;18.20;99.90;;;;;;5033744;28;20079;-74
2021/07/11 00:06:22;;;;;;;3.85;2.72;;;18.30;99.90;;;;;;5034770;28;20079;-73
2021/07/11 00:08:48;;;;;;;4.82;3.30;;;18.30;99.90;;;;;;5053749;28;20169;-73
2021/07/11 00:11:14;;;;;;;3.88;2.72;;;18.30;99.90;;;;;;5052917;28;20063;-73
2021/07/11 00:13:40;;;;;;;3.95;3.25;;;18.30;99.90;;;;;;5052037;28;20614;-72
2021/07/11 00:16:06;;;;;;;4.95;2.53;;;18.20;99.90;;;;;;5052933;28;20544;-72
2021/07/11 00:18:31;;;;;;;4.07;2.58;;;18.30;99.90;;;;;;5053106;28;20039;-72
2021/07/11 00:20:57;;;;;;;3.65;2.70;;;18.10;99.90;;;;;;5053013;28;20025;-72
2021/07/11 00:23:23;;;;;;;4.28;2.60;;;18.10;99.90;;;;;;5051706;28;20060;-72
2021/07/11 00:25:48;;;;;;;4.50;3.40;;;18.10;99.90;;;;;;5052892;28;20112;-72
2021/07/11 00:28:14;;;;;;;4.28;2.88;;;18.10;99.90;;;;;;5053114;28;20098;-72
2021/07/11 00:30:40;;;;;;;4.05;2.95;;;18.10;99.90;;;;;;5052676;28;20037;-72
2021/07/11 00:33:06;;;;;;;5.25;3.20;;;18.00;99.90;;;;;;5035093;28;20063;-72
2021/07/11 00:35:31;;;;;;;3.40;2.65;;;18.00;99.90;;;;;;5051668;28;20032;-72
2021/07/11 00:37:57;;;;;;;5.07;2.75;;;18.00;99.90;;;;;;5037084;28;20060;-72
2021/07/11 00:40:23;;;;;;;6.55;2.88;;;18.00;99.90;;;;;;5032841;28;20037;-73
2021/07/11 00:42:49;;;;;;;5.95;3.03;;;18.00;99.90;;;;;;5031656;28;20033;-73
2021/07/11 00:45:15;;;;;;;7.05;2.70;;;18.00;99.90;;;;;;5032684;28;20109;-74
2021/07/11 00:47:42;;;;;;;4.07;2.85;;;17.90;99.90;;;;;;5032710;28;20032;-74
2021/07/11 00:50:15;;;;;;;6.80;2.88;;;17.90;99.90;;;;;;5031549;28;20034;-73
2021/07/11 00:52:41;;;;;;;4.97;3.08;;;17.90;99.90;;;;;;5031345;28;20033;-72
2021/07/11 00:55:07;;;;;;;4.32;3.03;;;17.90;99.90;;;;;;5032476;28;20090;-71
2021/07/11 00:57:33;;;;;;;4.93;3.47;;;17.90;99.90;;;;;;5032598;28;20092;-72
2021/07/11 00:59:59;;;;;;;4.95;3.63;;;18.00;99.90;;;;;;5032433;28;20497;-72
2021/07/11 01:02:51;;;;;;;4.65;2.75;;;18.00;99.90;;;;;;5032478;28;20069;-72
2021/07/11 01:05:16;;;;;;;;;;;18.00;99.90;;;;;;5031849;28;20064;-72
2021/07/11 01:07:49;;;;;;;5.38;3.05;;;17.90;99.90;;;;;;5027736;28;19967;-72
2021/07/11 01:10:55;;;;;;;5.10;2.45;;;17.80;99.90;;;;;;5051328;28;20052;-73
2021/07/11 01:13:27;;;;;;;3.55;2.55;;;17.90;99.90;;;;;;5050722;28;20079;-72
2021/07/11 01:15:55;;;;;;;4.35;2.75;;;17.90;99.90;;;;;;5051363;28;20056;-72
2021/07/11 01:18:23;;;;;;;4.75;2.70;;;17.90;99.90;;;;;;5052222;28;20083;-73
2021/07/11 01:20:56;;;;;;;3.85;2.17;;;18.00;99.90;;;;;;5051083;28;20041;-74
2021/07/11 01:23:30;;;;;;;4.95;2.30;;;18.00;99.90;;;;;;5050424;28;20040;-73
2021/07/11 01:25:56;;;;;;;3.25;2.17;;;17.90;99.90;;;;;;5052365;28;20059;-73
2021/07/11 01:28:23;;;;;;;6.82;2.90;;;17.90;99.90;;;;;;5050845;28;20029;-73
2021/07/11 01:30:52;;;;;;;3.60;2.20;;;18.00;99.90;;;;;;5051040;28;20029;-71
2021/07/11 01:33:22;;;;;;;6.00;2.83;;;17.90;99.90;;;;;;5052084;28;20506;-73
2021/07/11 01:35:49;;;;;;;6.07;3.35;;;18.00;99.90;;;;;;5050943;28;20052;-72
2021/07/11 01:38:17;;;;;;;8.00;3.53;;;18.00;99.90;;;;;;5032472;28;20029;-72
2021/07/11 01:40:44;;;;;;;7.45;3.85;;;18.00;99.90;;;;;;5030856;28;20048;-72
2021/07/11 01:43:10;;;;;;;4.53;3.20;;;17.90;99.90;;;;;;5032183;28;20500;-72
2021/07/11 01:45:37;;;;;;;4.72;3.03;;;17.90;99.90;;;;;;5030591;28;20037;-73
2021/07/11 01:48:05;;;;;;;4.82;3.10;;;17.90;99.90;;;;;;5030627;28;20034;-71
2021/07/11 01:50:32;;;;;;;5.90;3.50;;;17.90;99.90;;;;;;5030825;28;20061;-72
2021/07/11 01:52:57;;;;;;;5.47;2.88;;;17.90;99.90;;;;;;5030434;28;20120;-72
2021/07/11 01:55:26;;;;;;;7.18;3.35;;;17.90;99.90;;;;;;5031918;28;20117;-72
2021/07/11 01:57:52;;;;;;;7.72;3.13;;;17.90;99.90;;;;;;5032110;28;20108;-72
2021/07/11 02:00:20;;;;;;;8.48;3.15;;;17.90;99.90;;;;;;5031838;28;20505;-71
2021/07/11 02:02:47;;;;;;;6.18;3.08;;;17.80;99.90;;;;;;5030506;28;20029;-72
2021/07/11 02:05:15;;;;;;;6.05;3.35;;;17.80;99.90;;;;;;5032028;28;20079;-72
2021/07/11 02:07:41;;;;;;;6.70;3.30;;;17.80;99.90;;;;;;5044968;28;20119;-72
2021/07/11 02:10:10;;;;;;;7.10;3.53;;;17.80;99.90;;;;;;5050261;28;20052;-72
2021/07/11 02:13:03;;;;;;;7.60;3.38;;;17.80;99.90;;;;;;5051260;28;20049;-72
2021/07/11 02:15:31;;;;;;;7.57;3.85;;;17.70;99.90;;;;;;5050231;28;20037;-72
2021/07/11 02:17:59;;;;;;;6.40;3.60;;;17.70;99.90;;;;;;5050191;28;20041;-73
2021/07/11 02:20:29;;;;;;;10.88;4.25;;;17.60;99.90;;;;;;5050175;28;20029;-72
2021/07/11 02:22:58;;;;;;;5.80;3.60;;;17.70;99.90;;;;;;5050186;28;20040;-73
2021/07/11 02:25:26;;;;;;;6.10;3.80;;;17.60;99.90;;;;;;5050162;28;20055;-72
2021/07/11 02:27:53;;;;;;;7.32;3.65;;;17.60;99.90;;;;;;5050213;28;20071;-73
2021/07/11 02:30:25;;;;;;;4.78;3.67;;;17.50;99.90;;;;;;5051478;28;20060;-73
2021/07/11 02:32:52;;;;;;;5.70;3.42;;;17.50;99.90;;;;;;5049951;28;20485;-73
2021/07/11 02:35:41;;;;;;;11.00;4.00;;;17.50;99.90;;;;;;5050394;28;20029;-72
2021/07/11 02:38:08;;;;;;;6.82;3.70;;;17.40;99.90;;;;;;5036500;28;20046;-72
2021/07/11 02:40:35;;;;;;;5.93;3.67;;;17.50;99.90;;;;;;5033646;28;20025;-72
2021/07/11 02:43:05;;;;;;;9.65;3.58;;;17.50;99.90;;;;;;5017373;28;20060;-72
2021/07/11 02:45:32;;;;;;;5.80;3.28;;;17.50;99.90;;;;;;5034647;28;20034;-72
2021/07/11 02:48:01;;;;;;;6.22;3.90;;;17.50;99.90;;;;;;5034734;28;20026;-72
2021/07/11 02:50:28;;;;;;;5.63;3.38;;;17.40;99.90;;;;;;5033529;28;20099;-72
2021/07/11 02:52:56;;;;;;;11.30;4.63;;;17.50;99.90;;;;;;5033267;28;20036;-72
2021/07/11 02:55:30;;;;;;;6.80;3.58;;;17.50;99.90;;;;;;5033357;28;20611;-71
2021/07/11 02:58:01;;;;;;;7.82;3.42;;;17.50;99.90;;;;;;5033315;28;20378;-71
2021/07/11 03:00:28;;;;;;;5.95;3.60;;;17.50;99.90;;;;;;5033370;28;20057;-72
2021/07/11 03:02:56;;;;;;;4.80;3.58;;;17.40;99.90;;;;;;5033724;28;20036;-72
2021/07/11 03:05:24;;;;;;;5.68;3.08;;;17.50;99.90;;;;;;5033311;28;20037;-72
2021/07/11 03:07:51;;;;;;;5.10;3.50;;;17.50;99.90;;;;;;5047510;28;20497;-72
2021/07/11 03:10:18;;;;;;;7.28;3.88;;;17.50;99.90;;;;;;5053072;28;20033;-72
2021/07/11 03:12:52;;;;;;;9.63;3.55;;;17.50;99.90;;;;;;5052849;28;20492;-72
2021/07/11 03:15:22;;;;;;;6.53;3.53;;;17.40;99.90;;;;;;5036512;28;20108;-72
2021/07/11 03:17:49;;;;;;;6.38;4.20;;;17.40;99.90;;;;;;5054400;28;20545;-72
2021/07/11 03:20:15;;;;;;;5.00;3.63;;;17.40;99.90;;;;;;5053143;28;20033;-72
2021/07/11 03:22:42;;;;;;;7.40;4.05;;;17.50;99.90;;;;;;5052883;28;20036;-72
2021/07/11 03:25:11;;;;;;;7.25;3.53;;;17.40;99.90;;;;;;5053852;28;20025;-72
2021/07/11 03:27:39;;;;;;;7.05;3.72;;;17.40;99.90;;;;;;5054216;28;20044;-72
2021/07/11 03:30:20;;;;;;;8.27;3.92;;;17.50;99.90;;;;;;5052616;28;20025;-72
2021/07/11 03:32:59;;;;;;;8.50;3.72;;;17.30;99.90;;;;;;5053619;28;20057;-72
2021/07/11 03:35:45;;;;;;;7.10;4.45;;;17.30;99.90;;;;;;5052612;28;20036;-72
2021/07/11 03:38:17;;;;;;;7.75;3.55;;;17.30;99.90;;;;;;5036250;28;20398;-72
2021/07/11 03:40:46;;;;;;;8.35;3.90;;;17.30;99.90;;;;;;5033616;28;20486;-72
2021/07/11 03:43:15;;;;;;;6.03;3.78;;;17.40;99.90;;;;;;5032977;28;20055;-72
2021/07/11 03:45:44;;;;;;;9.05;3.75;;;17.40;99.90;;;;;;5032578;28;20132;-72
2021/07/11 03:48:25;;;;;;;7.20;3.60;;;17.40;99.90;;;;;;5032480;28;20068;-72
2021/07/11 03:50:56;;;;;;;7.80;3.85;;;17.40;99.90;;;;;;5033421;28;20493;-72
2021/07/11 03:53:27;;;;;;;5.75;3.30;;;17.40;99.90;;;;;;5033415;28;20048;-72
2021/07/11 03:55:58;;;;;;;6.83;3.10;;;17.40;99.90;;;;;;5032364;28;20037;-72
2021/07/11 03:58:24;;;;;;;;;;;17.40;99.90;;;;;;5032710;28;20034;-72
2021/07/11 04:00:52;;;;;;;6.03;3.30;;;17.40;99.90;;;;;;5032143;28;19917;-72
2021/07/11 04:03:20;;;;;;;7.03;3.58;;;17.40;99.90;;;;;;5033529;28;20026;-72
2021/07/11 04:05:47;;;;;;;8.43;3.90;;;17.40;99.90;;;;;;5015754;28;20083;-72
2021/07/11 04:08:17;;;;;;;7.82;3.97;;;17.40;99.90;;;;;;5050776;28;20056;-71
2021/07/11 04:10:44;;;;;;;8.77;3.67;;;17.40;99.90;;;;;;5035422;28;20462;-71
2021/07/11 04:13:10;;;;;;;11.00;4.00;;;17.40;99.90;;;;;;5053227;28;20039;-71
2021/07/11 04:15:36;;;;;;;6.07;3.65;;;17.30;99.90;;;;;;5051690;28;20029;-72
2021/07/11 04:18:07;;;;;;;8.02;3.67;;;17.30;99.90;;;;;;5052109;28;20031;-71
2021/07/11 04:20:35;;;;;;;5.35;3.47;;;17.30;99.90;;;;;;5035086;28;20517;-72
2021/07/11 04:23:03;;;;;;;8.45;3.92;;;17.30;99.90;;;;;;5052575;28;20558;-72
2021/07/11 04:25:33;;;;;;;5.93;3.33;;;17.20;99.90;;;;;;5051690;28;20025;-72
2021/07/11 04:28:00;;;;;;;9.30;4.18;;;17.30;99.90;;;;;;5051476;28;20392;-71
2021/07/11 04:30:27;;;;;;;6.80;4.50;;;17.30;99.90;;;;;;5051490;28;20036;-71
2021/07/11 04:32:55;;;;;;;10.10;4.00;;;17.30;99.90;;;;;;5052570;28;20032;-71
2021/07/11 04:35:21;;;;;;;7.88;4.07;;;17.30;99.90;;;;;;5051322;28;20512;-71
2021/07/11 04:37:47;;;;;;;7.72;4.10;;;17.30;99.90;;;;;;5038333;28;20042;-71
2021/07/11 04:40:14;;;;;;;12.32;4.47;;;17.30;99.90;;;;;;5031524;28;20025;-71
2021/07/11 04:42:40;;;;;;;9.30;4.43;;;17.20;99.90;;;;;;5031254;28;20474;-71
2021/07/11 04:45:06;;;;;;;7.85;4.05;;;17.30;99.90;;;;;;5031321;28;20036;-71
2021/07/11 04:47:32;;;;;;;9.95;4.47;;;17.20;99.90;;;;;;5031093;28;20493;-71
2021/07/11 04:49:58;;;;;;;9.50;4.65;;;17.20;99.90;;;;;;5031176;28;20705;-71
2021/07/11 04:52:24;;;;;;;16.13;4.25;;;17.10;99.90;;;;;;5032609;28;20378;-71
2021/07/11 04:54:50;;;;;;;9.68;4.97;;;17.10;99.90;;;;;;5032518;28;20033;-71
2021/07/11 04:57:15;;;;;;;9.23;5.38;;;17.00;99.90;;;;;;5031055;28;20080;-71
2021/07/11 04:59:42;;;;;;;11.52;5.38;;;17.00;99.90;;;;;;5031541;28;20132;-72
2021/07/11 05:02:08;;;;;;;15.23;5.82;;;17.00;99.90;;;;;;5032445;28;20037;-71
2021/07/11 05:04:33;;;;;;;10.68;5.70;;;17.10;99.90;;;;;;5031306;28;20035;-72
2021/07/11 05:06:59;;;;;;;7.60;5.72;;;17.10;99.90;;;;;;5039688;28;20033;-72
2021/07/11 05:09:25;;;;;;;12.05;5.32;;;17.20;99.90;;;;;;5051189;28;20028;-71
2021/07/11 05:11:51;;;;;;;7.90;5.43;;;17.00;99.90;;;;;;5051783;28;20045;-72
2021/07/11 05:14:17;;;;;;;11.88;4.53;;;17.10;99.90;;;;;;5052196;28;20036;-71
2021/07/11 05:16:43;;;;;;;6.25;4.57;;;17.20;99.90;;;;;;5034132;28;20025;-71
2021/07/11 05:19:09;;;;;;;5.50;3.85;;;17.20;99.90;;;;;;5052226;28;20032;-72
2021/07/11 05:21:35;;;;;;;7.93;4.25;;;17.20;99.90;;;;;;5050674;28;20029;-72
2021/07/11 05:24:01;;;;;;;6.88;4.75;;;17.10;99.90;;;;;;5052232;28;20029;-71
2021/07/11 05:26:27;;;;;;;8.15;6.05;;;17.10;99.90;;;;;;5051814;28;20036;-71
2021/07/11 05:28:53;;;;;;;12.30;6.75;;;17.10;99.90;;;;;;5052085;28;20497;-71
2021/07/11 05:31:19;;;;;;;11.88;9.02;;;17.10;99.90;;;;;;5052271;28;20029;-71
2021/07/11 05:33:45;;;;;;;12.50;8.50;;;17.00;99.90;;;;;;5050379;28;20497;-72
2021/07/11 05:36:11;;;;;;;14.05;10.07;;;17.10;99.90;;;;;;5050949;28;20025;-72
2021/07/11 05:38:39;;;;;;;13.82;9.48;;;17.20;99.90;;;;;;5031849;28;20065;-72
2021/07/11 05:41:06;;;;;;;16.35;10.95;;;17.10;99.90;;;;;;5030694;28;20029;-72
2021/07/11 05:43:33;;;;;;;18.33;11.70;;;17.10;99.90;;;;;;5047496;28;20471;-72
2021/07/11 05:45:59;;;;;;;13.13;8.85;;;17.10;99.90;;;;;;5030293;28;20612;-71
2021/07/11 05:48:26;;;;;;;12.88;8.88;;;17.10;99.90;;;;;;5031834;28;20084;-71
2021/07/11 05:50:51;;;;;;;11.05;8.45;;;17.20;99.90;;;;;;5046944;28;20025;-71
2021/07/11 05:53:17;;;;;;;10.23;7.60;;;17.20;99.90;;;;;;5030894;28;20037;-71
2021/07/11 05:55:43;;;;;;;9.90;7.10;;;17.20;99.90;;;;;;5030782;28;20113;-71
2021/07/11 05:58:09;;;;;;;10.48;7.20;;;17.30;99.90;;;;;;5031951;28;20033;-71
2021/07/11 06:00:36;;;;;;;11.75;7.30;;;17.30;99.90;;;;;;5030752;28;20398;-63
2021/07/11 06:03:02;;;;;;;9.73;7.60;;;17.40;99.90;;;;;;5031496;28;20043;-76
2021/07/11 06:05:28;;;;;;;11.48;7.35;;;17.70;99.90;;;;;;5029975;28;20037;-75
2021/07/11 06:07:54;;;;;;;10.82;7.55;;;17.70;99.90;;;;;;5031456;28;20025;-79
2021/07/11 06:10:20;;;;;;;10.88;7.63;;;17.80;99.90;;;;;;5031309;28;20044;-76
2021/07/11 06:12:46;;;;;;;10.52;6.82;;;18.00;99.90;;;;;;5034222;28;20060;-75
2021/07/11 06:15:12;;;;;;;9.23;6.50;;;17.90;99.90;;;;;;5035191;28;20030;-72
2021/07/11 06:17:39;;;;;;;10.07;7.07;;;17.90;99.90;;;;;;5035399;28;20033;-73
2021/07/11 06:20:10;;;;;;;10.48;7.68;;;17.90;99.90;;;;;;4965031;28;20045;-73
2021/07/11 06:22:38;;;;;;;9.63;7.13;;;18.00;99.90;;;;;;5032866;28;20030;-73
2021/07/11 06:25:07;;;;;;;11.07;6.40;;;18.00;99.90;;;;;;5034915;28;20120;-74
2021/07/11 06:27:41;;;;;;;11.15;6.07;;;18.20;99.90;;;;;;5035167;28;20428;-74
2021/07/11 06:30:11;;;;;;;12.43;6.80;;;18.10;99.90;;;;;;5035187;28;20386;-74
2021/07/11 06:32:42;;;;;;;8.35;6.00;;;18.10;99.90;;;;;;5032864;28;20033;-74
2021/07/11 06:35:11;;;;;;;10.07;5.97;;;18.00;99.90;;;;;;5033585;28;20041;-76
2021/07/11 06:37:37;;;;;;;9.15;5.78;;;18.00;99.90;;;;;;5040095;28;20453;-74
2021/07/11 06:40:05;;;;;;;11.93;5.70;;;17.90;99.90;;;;;;5054978;28;20044;-74
2021/07/11 06:42:31;;;;;;;12.88;6.15;;;17.90;99.90;;;;;;5055126;28;20107;-73
2021/07/11 06:44:57;;;;;;;9.80;5.85;;;18.10;99.90;;;;;;5054926;28;20567;-74
2021/07/11 06:47:23;;;;;;;12.43;5.57;;;18.20;99.90;;;;;;5054977;28;20104;-73
2021/07/11 06:49:48;;;;;;;8.82;6.07;;;18.30;99.90;;;;;;5054730;28;20096;-76
2021/07/11 06:52:14;;;;;;;8.00;6.03;;;18.10;99.90;;;;;;5022485;28;20034;-73
2021/07/11 06:54:40;;;;;;;8.80;5.00;;;18.10;99.90;;;;;;5015179;28;20129;-72
2021/07/11 06:57:06;;;;;;;7.72;4.57;;;18.00;99.90;;;;;;5014596;28;20113;-73
2021/07/11 06:59:31;;;;;;;7.07;4.90;;;18.10;99.90;;;;;;5014980;28;20036;-74
2021/07/11 07:01:57;;;;;;;8.73;4.93;;;18.10;99.90;;;;;;5014731;28;20434;-74
2021/07/11 07:04:23;;;;;;;5.40;4.07;;;18.10;99.90;;;;;;5013738;28;20379;-81
2021/07/11 07:06:50;;;;;;;7.03;4.30;;;17.90;99.90;;;;;;5014777;28;20026;-76
2021/07/11 07:09:15;;;;;;;6.75;4.80;;;18.00;99.90;;;;;;5014798;28;20084;-72
2021/07/11 07:11:41;;;;;;;7.63;4.47;;;18.10;99.90;;;;;;5014470;28;20049;-74
2021/07/11 07:14:07;;;;;;;7.00;4.55;;;18.10;99.90;;;;;;5014395;28;20545;-73
2021/07/11 07:16:33;;;;;;;8.38;4.35;;;18.00;99.90;;;;;;5014659;28;20030;-75
2021/07/11 07:18:58;;;;;;;8.27;4.30;;;18.10;99.90;;;;;;5014537;28;20034;-76
2021/07/11 07:21:24;;;;;;;6.13;3.90;;;17.90;99.90;;;;;;5014327;28;20037;-75
2021/07/11 07:23:50;;;;;;;6.82;3.08;;;18.00;99.90;;;;;;5014052;28;20120;-75
2021/07/11 07:26:16;;;;;;;5.28;3.72;;;18.10;99.90;;;;;;5014454;28;20116;-77
2021/07/11 07:28:42;;;;;;;4.78;3.20;;;18.20;99.90;;;;;;5014510;28;20026;-73
2021/07/11 07:31:07;;;;;;;7.47;3.65;;;18.30;99.90;;;;;;5013970;28;20049;-73
2021/07/11 07:33:33;;;;;;;7.32;4.30;;;18.50;99.90;;;;;;5014068;28;20061;-74
2021/07/11 07:35:59;;;;;;;4.57;3.22;;;18.60;99.90;;;;;;5014345;28;20391;-75
2021/07/11 07:38:25;;;;;;;6.50;3.42;;;18.60;99.90;;;;;;5026208;28;20048;-74
2021/07/11 07:40:51;;;;;;;5.05;3.83;;;18.50;99.90;;;;;;5033731;28;20103;-74
2021/07/11 07:43:16;;;;;;;5.63;3.75;;;18.60;99.90;;;;;;5033914;28;20087;-74
2021/07/11 07:45:44;;;;;;;6.78;3.45;;;18.70;99.90;;;;;;5033815;28;20026;-74
2021/07/11 07:48:11;;;;;;;5.60;3.53;;;18.70;99.90;;;;;;5033805;28;20026;-70
2021/07/11 07:50:38;;;;;;;4.05;2.60;;;18.60;99.90;;;;;;5033847;28;20021;-70
2021/07/11 07:53:05;;;;;;;5.95;3.97;;;18.60;99.90;;;;;;5033540;28;20517;-70
2021/07/11 07:55:32;;;;;;;5.97;4.30;;;18.60;99.90;;;;;;5032656;28;20026;-72
2021/07/11 07:58:02;;;;;;;6.20;4.32;;;18.40;99.90;;;;;;5033077;28;20380;-70
2021/07/11 08:00:28;;;;;;;7.82;3.97;;;18.50;99.90;;;;;;5033670;28;20112;-71
2021/07/11 08:02:55;;;;;;;7.07;4.28;;;18.40;99.90;;;;;;5032957;28;20029;-70
2021/07/11 08:05:20;;;;;;;7.05;3.38;;;18.50;99.90;;;;;;5033520;28;20619;-71
2021/07/11 08:07:47;;;;;;;4.72;3.25;;;18.50;99.90;;;;;;5033080;28;20037;-71
2021/07/11 08:10:15;;;;;;;6.15;2.97;;;18.60;99.90;;;;;;5033560;28;20041;-71
2021/07/11 08:12:42;;;;;;;4.18;2.40;;;18.60;99.90;;;;;;5032856;28;20072;-69
2021/07/11 08:15:10;;;;;;;4.50;2.45;;;18.70;99.90;;;;;;5033190;28;20540;-72
2021/07/11 08:17:36;;;;;;;4.97;2.75;;;18.70;99.90;;;;;;5033249;28;20029;-72
2021/07/11 08:20:05;;;;;;;5.30;2.90;;;18.60;99.90;;;;;;5048524;28;20040;-72
2021/07/11 08:22:31;;;;;;;3.10;1.80;;;18.60;99.90;;;;;;5033292;28;20815;-71
2021/07/11 08:24:57;;;;;;;4.15;2.17;;;18.50;99.90;;;;;;5033080;28;20253;-70
2021/07/11 08:27:24;;;;;;;5.50;2.00;;;18.50;99.90;;;;;;5033067;28;20060;-71
2021/07/11 08:29:51;;;;;;;6.03;2.60;;;18.50;99.90;;;;;;5030949;28;20092;-70
2021/07/11 08:32:18;;;;;;;4.82;2.35;;;18.50;99.90;;;;;;5032476;28;20542;-72
2021/07/11 08:34:44;;;;;;;4.75;2.92;;;18.60;99.90;;;;;;5032247;28;20029;-72
2021/07/11 08:37:10;;;;;;;6.40;1.83;;;18.70;99.90;;;;;;5035099;28;20056;-72
2021/07/11 08:39:35;;;;;;;2.33;1.73;;;18.60;99.90;;;;;;5052770;28;20036;-78
2021/07/11 08:42:01;;;;;;;3.13;1.90;;;18.50;99.90;;;;;;5051177;28;20116;-80
2021/07/11 08:44:27;;;;;;;4.00;2.47;;;18.60;99.90;;;;;;5052848;28;20040;-81
2021/07/11 08:46:54;;;;;;;6.15;2.28;;;18.70;99.90;;;;;;5051254;28;20029;-79
2021/07/11 08:49:23;;;;;;;3.90;2.15;;;18.70;99.90;;;;;;5052670;28;20039;-80
2021/07/11 08:51:55;;;;;;;3.58;2.22;;;18.80;99.90;;;;;;5052481;28;20037;-81
2021/07/11 08:54:21;;;;;;;4.03;2.28;;;18.80;99.90;;;;;;5051063;28;20033;-80
2021/07/11 08:56:47;;;;;;;4.53;2.20;;;18.80;99.90;;;;;;5052655;28;20492;-79
2021/07/11 08:59:12;;;;;;;4.13;2.00;;;18.70;99.90;;;;;;5050933;28;20132;-80
2021/07/11 09:01:38;;;;;;;5.22;2.45;;;18.70;99.90;;;;;;5052187;28;20040;-80
2021/07/11 09:04:05;;;;;;;4.50;2.60;;;18.90;99.90;;;;;;5051082;28;20115;-80
2021/07/11 09:06:55;;;;;;;7.68;2.97;;;18.90;99.90;;;;;;5052424;28;20239;-80
2021/07/11 09:09:27;;;;;;;4.82;3.05;;;19.20;99.90;;;;;;5052233;28;20063;-82
2021/07/11 09:12:03;;;;;;;3.83;2.70;;;19.60;99.90;;;;;;5050759;28;20495;-81
2021/07/11 09:14:38;;;;;;;4.00;2.15;;;19.70;99.90;;;;;;5050562;28;20498;-81
2021/07/11 09:17:06;;;;;;;4.30;2.60;;;19.60;99.90;;;;;;5051858;28;20040;-81
2021/07/11 09:19:34;;;;;;;3.97;2.72;;;19.80;99.90;;;;;;5052266;28;20090;-81
2021/07/11 09:22:14;;;;;;;7.10;3.00;;;20.00;99.90;;;;;;5051847;28;20033;-81
2021/07/11 09:24:54;;;;;;;4.28;2.67;;;20.00;99.90;;;;;;5052095;28;20070;-81
2021/07/11 09:27:26;;;;;;;6.07;3.17;;;20.00;99.90;;;;;;5050781;28;20443;-82
2021/07/11 09:29:58;;;;;;;5.13;2.78;;;19.90;99.90;;;;;;5052000;28;20025;-81
2021/07/11 09:32:32;;;;;;;3.78;2.53;;;20.20;99.90;;;;;;5025393;28;20109;-81
2021/07/11 09:35:10;;;;;;;3.30;2.25;;;20.50;99.90;;;;;;5014633;28;20108;-82
2021/07/11 09:37:39;;;;;;;4.93;3.03;;;20.60;99.90;;;;;;5030769;28;20061;-81
2021/07/11 09:40:08;;;;;;;4.53;2.28;;;20.90;99.90;;;;;;5014762;28;20041;-81
2021/07/11 09:42:40;;;;;;;3.70;2.30;;;21.10;99.90;;;;;;5030777;28;20033;-81
2021/07/11 09:45:17;;;;;;;5.20;2.10;;;21.30;99.90;;;;;;5031751;28;20025;-81
2021/07/11 09:47:44;;;;;;;5.38;2.40;;;21.30;99.90;;;;;;5018669;28;20029;-82
2021/07/11 09:50:15;;;;;;;4.28;2.45;;;21.40;99.90;;;;;;5034212;28;20030;-88
2021/07/11 09:52:44;;;;;;;3.45;2.20;;;21.30;99.90;;;;;;5036211;28;20470;-75
2021/07/11 09:55:36;;;;;;;3.33;2.38;;;21.10;99.90;;;;;;5034271;28;20040;-80
2021/07/11 09:58:11;;;;;;;4.03;2.35;;;21.30;99.90;;;;;;5034199;28;20037;-78
2021/07/11 10:00:43;;;;;;;3.17;2.15;;;21.40;99.90;;;;;;5034352;28;20447;-77
2021/07/11 10:03:12;;;;;;;3.42;2.20;;;21.40;99.90;;;;;;5033226;28;20112;-77
2021/07/11 10:05:43;;;;;;;3.67;2.13;;;21.30;99.90;;;;;;5016867;28;20120;-77
2021/07/11 10:08:09;;;;;;;;;;;21.10;99.90;;;;;;5034564;28;20040;-77
2021/07/11 10:10:39;;;;;;;6.75;2.38;;;21.20;99.90;;;;;;5035701;28;19913;-77
2021/07/11 10:13:07;;;;;;;3.42;2.03;;;21.30;99.90;;;;;;5034414;28;20083;-78
2021/07/11 10:15:39;;;;;;;4.10;1.90;;;21.00;99.90;;;;;;5034261;28;20124;-78
2021/07/11 10:18:13;;;;;;;2.92;1.88;;;21.10;99.90;;;;;;5035374;28;20167;-77
2021/07/11 10:20:54;;;;;;;3.95;2.17;;;21.50;99.90;;;;;;5034325;28;20033;-77
2021/07/11 10:23:28;;;;;;;3.28;2.10;;;21.90;99.90;;;;;;5034494;28;20088;-77
2021/07/11 10:26:06;;;;;;;3.70;2.08;;;22.20;99.90;;;;;;5035370;28;20159;-77
2021/07/11 10:28:39;;;;;;;4.28;2.22;;;22.40;99.90;;;;;;5036731;28;20041;-77
2021/07/11 10:31:17;;;;;;;3.58;1.70;;;22.10;99.90;;;;;;5050216;28;20030;-78
2021/07/11 10:33:44;;;;;;;2.67;1.90;;;22.30;99.90;;;;;;5035304;28;20030;-78
2021/07/11 10:36:12;;;;;;;2.97;1.70;;;22.10;99.90;;;;;;5033585;28;20038;-78
2021/07/11 10:38:44;;;;;;;4.53;1.70;;;22.20;99.90;;;;;;5034151;28;20040;-78
2021/07/11 10:41:14;;;;;;;4.43;2.03;;;22.50;99.90;;;;;;5033759;28;20033;-77
2021/07/11 10:43:41;;;;;;;2.97;1.50;;;22.40;99.90;;;;;;5035339;28;20022;-78
2021/07/11 10:46:07;;;;;;;3.25;1.70;;;21.90;99.90;;;;;;5033326;28;20479;-77
2021/07/11 10:48:33;;;;;;;3.28;1.45;;;22.10;99.90;;;;;;5017037;28;20044;-77
2021/07/11 10:51:02;;;;;;;2.33;1.55;;;22.50;99.90;;;;;;5033619;28;20108;-77
2021/07/11 10:53:37;;;;;;;3.40;1.77;;;22.90;99.90;;;;;;5033418;28;20037;-74
2021/07/11 10:56:05;;;;;;;2.90;1.70;;;23.10;99.90;;;;;;5016758;28;20470;-74
2021/07/11 10:58:47;;;;;;;2.65;1.65;;;23.40;99.90;;;;;;5034010;28;20030;-76
2021/07/11 11:01:20;;;;;;;3.92;1.40;;;23.30;99.90;;;;;;5033257;28;20034;-74
2021/07/11 11:03:52;;;;;;;2.88;1.60;;;23.30;99.90;;;;;;5033359;28;20116;-74
2021/07/11 11:06:18;;;;;;;5.00;1.50;;;23.20;99.90;;;;;;5033219;28;20041;-76
2021/07/11 11:08:47;;;;;;;1.88;1.40;;;23.40;99.90;;;;;;5034419;28;20661;-77
2021/07/11 11:11:14;;;;;;;3.05;1.40;;;23.50;99.90;;;;;;5016700;28;20096;-77
2021/07/11 11:13:40;;;;;;;2.88;1.30;;;23.70;99.90;;;;;;5034322;28;20029;-77
2021/07/11 11:16:20;;;;;;;2.40;1.45;;;23.70;99.90;;;;;;5032575;28;20509;-77
2021/07/11 11:18:52;;;;;;;2.13;1.23;;;23.60;99.90;;;;;;5034284;28;20474;-76
2021/07/11 11:21:22;;;;;;;2.90;1.30;;;23.40;99.90;;;;;;5033842;28;20041;-76
2021/07/11 11:23:54;;;;;;;1.95;1.30;;;23.30;99.90;;;;;;5034406;28;20494;-77
2021/07/11 11:26:30;;;;;;;2.90;1.40;;;23.30;99.90;;;;;;5032997;28;20232;-76
2021/07/11 11:28:59;;;;;;;2.58;1.40;;;23.20;99.90;;;;;;5016767;28;20034;-77
2021/07/11 11:31:27;;;;;;;2.33;1.15;;;23.20;99.90;;;;;;5016443;28;20030;-76
2021/07/11 11:34:05;;;;;;;2.00;1.20;;;23.40;99.90;;;;;;5034201;28;20037;-76
2021/07/11 11:36:49;;;;;;;2.33;1.15;;;23.60;99.90;;;;;;5033802;28;20031;-76
2021/07/11 11:39:28;;;;;;;2.63;1.30;;;23.70;99.90;;;;;;5033935;28;20566;-76
2021/07/11 11:41:55;;;;;;;3.10;1.08;;;24.00;99.90;;;;;;5032581;28;20057;-74
2021/07/11 11:44:24;;;;;;;1.58;1.05;;;24.00;99.90;;;;;;5032300;28;20041;-76
2021/07/11 11:46:56;;;;;;;3.90;1.30;;;23.80;99.90;;;;;;5031711;28;20063;-78
2021/07/11 11:49:25;;;;;;;1.48;1.00;;;24.10;99.90;;;;;;5033057;28;20053;-75
2021/07/11 11:52:01;;;;;;;2.53;1.40;;;24.20;99.90;;;;;;5032318;28;20437;-75
2021/07/11 11:54:38;;;;;;;2.88;1.20;;;24.60;99.90;;;;;;5032207;28;20386;-73
2021/07/11 11:57:07;;;;;;;2.10;1.20;;;24.70;99.90;;;;;;5032471;28;20112;-74
2021/07/11 11:59:33;;;;;;;2.28;1.42;;;24.60;99.90;;;;;;5033429;28;20033;-74
2021/07/11 12:02:02;;;;;;;3.60;1.38;;;23.80;99.90;;;;;;5033029;28;20025;-76
2021/07/11 12:04:30;;;;;;;2.03;1.00;;;23.70;99.90;;;;;;5032503;28;20381;-78
2021/07/11 12:06:59;;;;;;;1.63;1.10;;;24.20;99.90;;;;;;5033426;28;20485;-83
2021/07/11 12:09:32;;;;;;;3.72;1.35;;;24.20;99.90;;;;;;5015914;28;20550;-84
2021/07/11 12:12:07;;;;;;;1.50;1.00;;;24.20;99.90;;;;;;5032112;28;20060;-77
2021/07/11 12:14:39;;;;;;;1.67;1.05;;;24.40;99.90;;;;;;5033220;28;20497;-75
2021/07/11 12:17:16;;;;;;;2.67;1.48;;;24.50;99.90;;;;;;5031745;28;20065;-76
2021/07/11 12:20:01;;;;;;;3.58;1.23;;;24.90;99.50;;;;;;5028282;28;20071;-76
2021/07/11 12:22:38;;;;;;;3.90;1.40;;;24.80;99.00;;;;;;5011494;28;20062;-76
2021/07/11 12:25:12;;;;;;;2.72;1.73;;;24.40;99.70;;;;;;5011990;28;20069;-74
2021/07/11 12:27:41;;;;;;;2.15;1.27;;;23.80;99.90;;;;;;5028562;28;20045;-76
2021/07/11 12:30:44;;;;;;;2.63;1.50;;;23.70;99.90;;;;;;5012936;28;20034;-74
2021/07/11 12:33:11;;;;;;;4.22;1.83;;;23.90;99.90;;;;;;5033580;28;20113;-77
2021/07/11 12:35:48;;;;;;;2.30;1.40;;;24.20;99.40;;;;;;5031826;28;20037;-76
2021/07/11 12:38:14;;;;;;;3.63;1.40;;;24.20;99.90;;;;;;5032932;28;20033;-72
2021/07/11 12:40:43;;;;;;;2.47;1.50;;;24.10;99.90;;;;;;5031832;28;20029;-75
2021/07/11 12:43:19;;;;;;;1.80;1.20;;;24.20;99.90;;;;;;5033273;28;20037;-77
2021/07/11 12:46:07;;;;;;;2.70;1.50;;;24.20;99.90;;;;;;5034502;28;20030;-79
2021/07/11 12:48:49;;;;;;;3.50;1.60;;;24.60;99.60;;;;;;5044370;28;20036;-76
2021/07/11 12:51:33;;;;;;;3.83;1.58;;;25.00;99.90;;;;;;5052452;28;20104;-75
2021/07/11 12:54:15;;;;;;;2.35;1.50;;;24.90;99.90;;;;;;5052769;28;20106;-79
2021/07/11 12:57:03;;;;;;;3.03;1.30;;;25.40;99.30;;;;;;5052380;28;20033;-76